createdAt,value
2022-09-17T00:01:26.545Z,21.29
2022-09-17T00:04:16.497Z,21.29
2022-09-17T00:07:06.794Z,21.28
2022-09-17T00:09:57.200Z,21.28
2022-09-17T00:12:47.181Z,21.28
2022-09-17T00:15:42.398Z,21.27
2022-09-17T00:18:32.376Z,21.27
2022-09-17T00:21:22.544Z,21.27
2022-09-17T00:24:13.460Z,21.27
2022-09-17T00:27:03.382Z,21.27
2022-09-17T00:29:53.325Z,21.27
2022-09-17T00:32:43.191Z,21.26
2022-09-17T00:35:33.443Z,21.26
2022-09-17T00:38:23.645Z,21.27
2022-09-17T00:41:15.239Z,21.26
2022-09-17T00:44:48.994Z,21.26
2022-09-17T00:47:41.437Z,21.26
2022-09-17T00:50:33.782Z,21.26
2022-09-17T00:53:23.688Z,21.25
2022-09-17T00:56:22.841Z,21.25
2022-09-17T00:59:12.731Z,21.25
2022-09-17T01:02:03.476Z,21.25
2022-09-17T01:04:54.138Z,21.24
2022-09-17T01:08:05.611Z,21.24
2022-09-17T01:11:21.467Z,21.24
2022-09-17T01:14:22.006Z,21.25
2022-09-17T01:17:18.100Z,21.24
2022-09-17T01:20:30.604Z,21.23
2022-09-17T01:23:53.097Z,21.25
2022-09-17T01:27:26.468Z,21.24
2022-09-17T01:30:54.356Z,21.24
2022-09-17T01:33:48.223Z,21.24
2022-09-17T01:36:56.520Z,21.23
2022-09-17T01:39:52.202Z,21.23
2022-09-17T01:42:47.464Z,21.23
2022-09-17T01:45:40.789Z,21.22
2022-09-17T01:48:33.551Z,21.23
2022-09-17T01:51:24.667Z,21.23
2022-09-17T01:54:18.320Z,21.23
2022-09-17T01:57:11.292Z,21.22
2022-09-17T02:00:03.660Z,21.22
2022-09-17T02:03:04.063Z,21.22
2022-09-17T02:05:55.769Z,21.22
2022-09-17T02:08:47.872Z,21.21
2022-09-17T02:11:38.184Z,21.21
2022-09-17T02:14:31.222Z,21.21
2022-09-17T02:17:25.077Z,21.21
2022-09-17T02:20:18.644Z,21.20
2022-09-17T02:23:16.437Z,21.20
2022-09-17T02:26:08.815Z,21.20
2022-09-17T02:29:02.307Z,21.20
2022-09-17T02:31:52.527Z,21.21
2022-09-17T02:34:42.564Z,21.21
2022-09-17T02:37:32.509Z,21.22
2022-09-17T02:40:22.479Z,21.22
2022-09-17T02:43:19.211Z,21.21
2022-09-17T02:46:22.063Z,21.21
2022-09-17T02:49:35.050Z,21.21
2022-09-17T02:52:31.924Z,21.21
2022-09-17T02:55:26.469Z,21.20
2022-09-17T02:58:23.724Z,21.21
2022-09-17T03:01:19.935Z,21.20
2022-09-17T03:04:10.807Z,21.20
2022-09-17T03:07:01.641Z,21.20
2022-09-17T03:09:52.084Z,21.20
2022-09-17T03:12:42.105Z,21.19
2022-09-17T03:15:32.405Z,21.19
2022-09-17T03:18:22.299Z,21.19
2022-09-17T03:21:12.799Z,21.19
2022-09-17T03:24:03.462Z,21.19
2022-09-17T03:26:53.379Z,21.18
2022-09-17T03:29:43.670Z,21.17
2022-09-17T03:32:33.578Z,21.18
2022-09-17T03:35:23.448Z,21.17
2022-09-17T03:38:13.425Z,21.18
2022-09-17T03:41:06.483Z,21.18
2022-09-17T03:43:57.099Z,21.18
2022-09-17T03:46:47.150Z,21.17
2022-09-17T03:49:37.284Z,21.17
2022-09-17T03:52:27.605Z,21.17
2022-09-17T03:55:18.226Z,21.16
2022-09-17T03:58:08.185Z,21.16
2022-09-17T04:00:58.429Z,21.16
2022-09-17T04:03:48.355Z,21.15
2022-09-17T04:06:38.315Z,21.16
2022-09-17T04:09:28.251Z,21.15
2022-09-17T04:12:18.455Z,21.15
2022-09-17T04:15:11.465Z,21.15
2022-09-17T04:18:01.385Z,21.14
2022-09-17T04:20:51.306Z,21.14
2022-09-17T04:23:41.531Z,21.14
2022-09-17T04:26:31.409Z,21.13
2022-09-17T04:29:21.327Z,21.13
2022-09-17T04:32:11.202Z,21.13
2022-09-17T04:35:01.127Z,21.13
2022-09-17T04:37:55.473Z,21.12
2022-09-17T04:40:46.036Z,21.13
2022-09-17T04:43:35.923Z,21.12
2022-09-17T04:46:25.998Z,21.12
2022-09-17T04:49:15.915Z,21.12
2022-09-17T04:52:05.949Z,21.11
2022-09-17T04:54:55.996Z,21.11
2022-09-17T04:57:48.749Z,21.11
2022-09-17T05:00:38.667Z,21.11
2022-09-17T05:03:28.663Z,21.11
2022-09-17T05:06:18.950Z,21.11
2022-09-17T05:09:09.725Z,21.10
2022-09-17T05:11:59.612Z,21.11
2022-09-17T05:14:50.013Z,21.11
2022-09-17T05:17:39.985Z,21.11
2022-09-17T05:20:30.440Z,21.11
2022-09-17T05:23:20.771Z,21.11
2022-09-17T05:26:11.148Z,21.10
2022-09-17T05:29:04.177Z,21.11
2022-09-17T05:31:54.222Z,21.11
2022-09-17T05:34:44.209Z,21.11
2022-09-17T05:37:34.220Z,21.11
2022-09-17T05:40:24.230Z,21.11
2022-09-17T05:43:14.600Z,21.10
2022-09-17T05:46:06.035Z,21.10
2022-09-17T05:48:58.253Z,21.11
2022-09-17T05:51:49.583Z,21.11
2022-09-17T05:54:42.855Z,21.11
2022-09-17T05:57:33.421Z,21.11
2022-09-17T06:00:23.513Z,21.11
2022-09-17T06:03:14.655Z,21.11
2022-09-17T06:06:05.480Z,21.11
2022-09-17T06:08:55.703Z,21.12
2022-09-17T06:11:45.774Z,21.12
2022-09-17T06:14:35.678Z,21.12
2022-09-17T06:17:25.964Z,21.12
2022-09-17T06:20:16.477Z,21.12
2022-09-17T06:23:06.527Z,21.12
2022-09-17T06:25:58.794Z,21.12
2022-09-17T06:28:52.536Z,21.12
2022-09-17T06:31:44.201Z,21.12
2022-09-17T06:34:34.396Z,21.12
2022-09-17T06:37:29.145Z,21.12
2022-09-17T06:40:20.143Z,21.12
2022-09-17T06:43:10.239Z,21.13
2022-09-17T06:46:01.702Z,21.13
2022-09-17T06:48:51.741Z,21.13
2022-09-17T06:51:41.872Z,21.13
2022-09-17T06:54:32.186Z,21.13
2022-09-17T06:57:26.673Z,21.13
2022-09-17T07:00:18.174Z,21.13
2022-09-17T07:03:09.498Z,21.13
2022-09-17T07:05:59.662Z,21.13
2022-09-17T07:08:50.285Z,21.12
2022-09-17T07:11:40.202Z,21.12
2022-09-17T07:14:30.595Z,21.12
2022-09-17T07:17:20.728Z,21.14
2022-09-17T07:20:13.125Z,21.13
2022-09-17T07:23:03.017Z,21.15
2022-09-17T07:25:56.226Z,21.15
2022-09-17T07:28:46.153Z,21.16
2022-09-17T07:31:36.729Z,21.15
2022-09-17T07:34:28.577Z,21.17
2022-09-17T07:37:19.834Z,21.16
2022-09-17T07:40:11.131Z,21.17
2022-09-17T07:43:01.250Z,21.17
2022-09-17T07:45:52.417Z,21.18
2022-09-17T07:48:42.430Z,21.18
2022-09-17T07:51:32.729Z,21.18
2022-09-17T07:54:23.210Z,21.19
2022-09-17T07:57:13.165Z,21.19
2022-09-17T08:00:05.352Z,21.19
2022-09-17T08:03:01.842Z,21.20
2022-09-17T08:05:52.149Z,21.20
2022-09-17T08:08:42.080Z,21.20
2022-09-17T08:11:56.089Z,21.20
2022-09-17T08:14:42.245Z,21.21
2022-09-17T08:17:32.361Z,21.21
2022-09-17T08:20:23.792Z,21.22
2022-09-17T08:23:14.183Z,21.22
2022-09-17T08:26:04.280Z,21.22
2022-09-17T08:28:55.922Z,21.22
2022-09-17T08:31:46.024Z,21.23
2022-09-17T08:34:36.618Z,21.23
2022-09-17T08:37:26.868Z,21.23
2022-09-17T08:40:20.747Z,21.22
2022-09-17T08:43:11.641Z,21.22
2022-09-17T08:46:01.552Z,21.21
2022-09-17T08:49:05.482Z,21.19
2022-09-17T08:52:13.305Z,21.17
2022-09-17T08:55:07.678Z,21.16
2022-09-17T08:58:07.947Z,21.15
2022-09-17T09:01:07.749Z,21.13
2022-09-17T09:04:20.402Z,21.12
2022-09-17T09:07:12.650Z,21.11
2022-09-17T09:10:13.453Z,21.09
2022-09-17T09:13:04.528Z,21.09
2022-09-17T09:15:56.614Z,21.09
2022-09-17T09:18:46.721Z,21.08
2022-09-17T09:21:39.395Z,21.09
2022-09-17T09:24:37.875Z,21.08
2022-09-17T09:27:30.744Z,21.09
2022-09-17T09:30:23.430Z,21.09
2022-09-17T09:33:15.121Z,21.10
2022-09-17T09:36:07.777Z,21.10
2022-09-17T09:39:01.729Z,21.10
2022-09-17T09:41:55.385Z,21.11
2022-09-17T09:44:45.793Z,21.11
2022-09-17T09:47:45.475Z,21.11
2022-09-17T09:51:05.174Z,21.12
2022-09-17T09:54:07.231Z,21.12
2022-09-17T09:56:58.909Z,21.12
2022-09-17T09:59:48.845Z,21.13
2022-09-17T10:02:39.044Z,21.13
2022-09-17T10:05:29.662Z,21.13
2022-09-17T10:08:19.700Z,21.13
2022-09-17T10:11:21.676Z,21.13
2022-09-17T10:14:25.444Z,21.13
2022-09-17T10:17:21.700Z,21.13
2022-09-17T10:20:22.742Z,21.13
2022-09-17T10:23:14.205Z,21.13
2022-09-17T10:26:04.334Z,21.13
2022-09-17T10:28:55.595Z,21.13
2022-09-17T10:31:50.185Z,21.13
2022-09-17T10:34:40.141Z,21.14
2022-09-17T10:37:46.904Z,21.13
2022-09-17T10:40:36.862Z,21.14
2022-09-17T10:43:29.629Z,21.14
2022-09-17T10:46:27.350Z,21.14
2022-09-17T10:49:27.716Z,21.14
2022-09-17T10:52:25.514Z,21.14
2022-09-17T10:55:23.240Z,21.15
2022-09-17T10:58:24.324Z,21.15
2022-09-17T11:01:27.120Z,21.16
2022-09-17T11:04:29.593Z,21.16
2022-09-17T11:07:40.172Z,21.16
2022-09-17T11:10:32.991Z,21.16
2022-09-17T11:13:30.536Z,21.16
2022-09-17T11:16:31.453Z,21.16
2022-09-17T11:19:30.680Z,21.17
2022-09-17T11:22:23.453Z,21.18
2022-09-17T11:25:31.336Z,21.18
2022-09-17T11:28:37.781Z,21.18
2022-09-17T11:31:36.889Z,21.19
2022-09-17T11:34:32.351Z,21.20
2022-09-17T11:37:23.884Z,21.20
2022-09-17T11:40:16.852Z,21.21
2022-09-17T11:43:17.111Z,21.21
2022-09-17T11:46:10.924Z,21.22
2022-09-17T11:49:03.744Z,21.23
2022-09-17T11:51:56.227Z,21.23
2022-09-17T11:54:49.256Z,21.24
2022-09-17T11:57:40.344Z,21.25
2022-09-17T12:00:31.069Z,21.26
2022-09-17T12:03:24.952Z,21.27
2022-09-17T12:06:18.021Z,21.27
2022-09-17T12:09:12.434Z,21.28
2022-09-17T12:12:05.677Z,21.28
2022-09-17T12:14:58.698Z,21.29
2022-09-17T12:18:08.611Z,21.29
2022-09-17T12:21:06.160Z,21.29
2022-09-17T12:24:00.665Z,21.30
2022-09-17T12:27:08.065Z,21.29
2022-09-17T12:30:11.321Z,21.29
2022-09-17T12:33:15.411Z,21.29
2022-09-17T12:36:23.303Z,21.30
2022-09-17T12:39:35.816Z,21.30
2022-09-17T12:42:43.503Z,21.30
2022-09-17T12:45:56.824Z,21.31
2022-09-17T12:49:09.531Z,21.32
2022-09-17T12:52:00.611Z,21.32
2022-09-17T12:55:17.620Z,21.33
2022-09-17T12:58:11.842Z,21.34
2022-09-17T13:01:06.431Z,21.33
2022-09-17T13:03:59.776Z,21.34
2022-09-17T13:07:33.138Z,21.34
2022-09-17T13:10:52.481Z,21.34
2022-09-17T13:13:48.594Z,21.35
2022-09-17T13:16:40.170Z,21.36
2022-09-17T13:19:35.632Z,21.36
2022-09-17T13:22:29.240Z,21.37
2022-09-17T13:25:20.528Z,21.37
2022-09-17T13:28:11.483Z,21.37
2022-09-17T13:31:03.638Z,21.37
2022-09-17T13:33:58.333Z,21.37
2022-09-17T13:36:49.180Z,21.37
2022-09-17T13:39:44.461Z,21.38
2022-09-17T13:42:44.380Z,21.38
2022-09-17T13:45:35.798Z,21.37
2022-09-17T13:48:26.455Z,21.38
2022-09-17T13:51:48.817Z,21.38
2022-09-17T13:54:40.822Z,21.38
2022-09-17T13:57:32.894Z,21.38
2022-09-17T14:00:51.896Z,21.38
2022-09-17T14:03:56.473Z,21.38
2022-09-17T14:06:53.154Z,21.38
2022-09-17T14:09:55.914Z,21.38
2022-09-17T14:13:45.400Z,21.39
2022-09-17T14:16:49.715Z,21.38
2022-09-17T14:19:51.070Z,21.38
2022-09-17T14:22:41.653Z,21.39
2022-09-17T14:25:40.153Z,21.38
2022-09-17T14:28:33.188Z,21.38
2022-09-17T14:31:27.859Z,21.37
2022-09-17T14:34:21.170Z,21.38
2022-09-17T14:37:12.797Z,21.38
2022-09-17T14:40:09.012Z,21.37
2022-09-17T14:42:58.267Z,21.38
2022-09-17T14:45:51.038Z,21.38
2022-09-17T14:48:41.491Z,21.38
2022-09-17T14:51:31.452Z,21.38
2022-09-17T14:54:24.293Z,21.38
2022-09-17T14:57:23.559Z,21.37
2022-09-17T15:00:21.811Z,21.37
2022-09-17T15:03:22.799Z,21.36
2022-09-17T15:06:21.893Z,21.38
2022-09-17T15:09:17.833Z,21.37
2022-09-17T15:12:08.082Z,21.37
2022-09-17T15:14:58.483Z,21.37
2022-09-17T15:17:49.337Z,21.37
2022-09-17T15:20:39.370Z,21.37
2022-09-17T15:23:29.402Z,21.38
2022-09-17T15:26:22.616Z,21.37
2022-09-17T15:29:14.051Z,21.38
2022-09-17T15:32:08.604Z,21.38
2022-09-17T15:35:27.661Z,21.37
2022-09-17T15:38:25.396Z,21.37
2022-09-17T15:41:31.613Z,21.36
2022-09-17T15:44:30.283Z,21.35
2022-09-17T15:47:44.081Z,21.34
2022-09-17T15:50:35.272Z,21.34
2022-09-17T15:53:26.951Z,21.32
2022-09-17T15:56:18.335Z,21.31
2022-09-17T15:59:24.432Z,21.30
2022-09-17T16:02:28.307Z,21.30
2022-09-17T16:05:45.802Z,21.30
2022-09-17T16:08:36.562Z,21.30
2022-09-17T16:11:29.191Z,21.29
2022-09-17T16:14:19.100Z,21.30
2022-09-17T16:17:35.005Z,21.29
2022-09-17T16:20:25.941Z,21.29
2022-09-17T16:23:15.921Z,21.29
2022-09-17T16:26:06.424Z,21.29
2022-09-17T16:28:58.691Z,21.30
2022-09-17T16:31:48.956Z,21.29
2022-09-17T16:34:39.466Z,21.28
2022-09-17T16:37:29.408Z,21.29
2022-09-17T16:40:19.912Z,21.30
2022-09-17T16:43:10.048Z,21.30
2022-09-17T16:46:00.966Z,21.30
2022-09-17T16:48:52.077Z,21.31
2022-09-17T16:51:42.369Z,21.30
2022-09-17T16:54:32.399Z,21.31
2022-09-17T16:57:22.473Z,21.30
2022-09-17T17:00:16.350Z,21.30
2022-09-17T17:03:07.110Z,21.30
2022-09-17T17:05:57.221Z,21.30
2022-09-17T17:08:47.251Z,21.30
2022-09-17T17:11:37.332Z,21.29
2022-09-17T17:14:27.551Z,21.29
2022-09-17T17:17:18.462Z,21.29
2022-09-17T17:20:09.564Z,21.28
2022-09-17T17:22:59.906Z,21.28
2022-09-17T17:25:50.346Z,21.29
2022-09-17T17:28:40.534Z,21.27
2022-09-17T17:31:30.725Z,21.28
2022-09-17T17:34:20.735Z,21.27
2022-09-17T17:37:13.688Z,21.26
2022-09-17T17:40:08.337Z,21.26
2022-09-17T17:42:58.821Z,21.26
2022-09-17T17:45:48.824Z,21.26
2022-09-17T17:48:39.189Z,21.26
2022-09-17T17:51:29.276Z,21.26
2022-09-17T17:54:21.472Z,21.25
2022-09-17T17:57:11.749Z,21.25
2022-09-17T18:00:02.395Z,21.25
2022-09-17T18:03:02.004Z,21.24
2022-09-17T18:05:55.785Z,21.24
2022-09-17T18:08:46.184Z,21.24
2022-09-17T18:11:36.477Z,21.24
2022-09-17T18:14:26.869Z,21.24
2022-09-17T18:17:17.030Z,21.24
2022-09-17T18:20:09.237Z,21.23
2022-09-17T18:22:59.224Z,21.23
2022-09-17T18:25:56.732Z,21.23
2022-09-17T18:28:46.986Z,21.22
2022-09-17T18:31:37.620Z,21.23
2022-09-17T18:34:27.657Z,21.22
2022-09-17T18:37:17.725Z,21.22
2022-09-17T18:40:10.317Z,21.22
2022-09-17T18:43:01.126Z,21.22
2022-09-17T18:45:55.514Z,21.21
2022-09-17T18:48:45.652Z,21.20
2022-09-17T18:51:35.627Z,21.20
2022-09-17T18:54:25.781Z,21.19
2022-09-17T18:57:15.860Z,21.19
2022-09-17T19:00:10.634Z,21.19
2022-09-17T19:03:02.764Z,21.19
2022-09-17T19:05:52.774Z,21.18
2022-09-17T19:08:43.148Z,21.18
2022-09-17T19:11:34.819Z,21.18
2022-09-17T19:14:24.983Z,21.18
2022-09-17T19:17:15.033Z,21.18
2022-09-17T19:20:06.397Z,21.18
2022-09-17T19:22:56.405Z,21.17
2022-09-17T19:25:46.529Z,21.17
2022-09-17T19:28:38.001Z,21.17
2022-09-17T19:31:28.651Z,21.17
2022-09-17T19:34:18.721Z,21.17
2022-09-17T19:37:08.957Z,21.16
2022-09-17T19:39:58.986Z,21.16
2022-09-17T19:42:54.094Z,21.16
2022-09-17T19:45:44.069Z,21.16
2022-09-17T19:48:35.657Z,21.16
2022-09-17T19:51:28.291Z,21.16
2022-09-17T19:54:18.743Z,21.16
2022-09-17T19:57:08.957Z,21.15
2022-09-17T19:59:58.931Z,21.15
2022-09-17T20:02:50.873Z,21.15
2022-09-17T20:05:41.014Z,21.15
2022-09-17T20:08:31.322Z,21.15
2022-09-17T20:11:22.984Z,21.15
2022-09-17T20:14:13.217Z,21.15
2022-09-17T20:17:03.906Z,21.14
2022-09-17T20:19:53.993Z,21.15
2022-09-17T20:22:44.359Z,21.14
2022-09-17T20:25:34.519Z,21.14
2022-09-17T20:28:24.706Z,21.14
2022-09-17T20:31:16.581Z,21.14
2022-09-17T20:34:06.908Z,21.14
2022-09-17T20:37:12.553Z,21.14
2022-09-17T20:40:04.919Z,21.14
2022-09-17T20:42:54.883Z,21.13
2022-09-17T20:45:52.744Z,21.13
2022-09-17T20:48:43.103Z,21.13
2022-09-17T20:51:33.457Z,21.13
2022-09-17T20:54:23.559Z,21.13
2022-09-17T20:57:13.590Z,21.12
2022-09-17T21:00:18.028Z,21.12
2022-09-17T21:03:09.759Z,21.11
2022-09-17T21:05:59.876Z,21.11
2022-09-17T21:08:50.143Z,21.11
2022-09-17T21:11:43.087Z,21.11
2022-09-17T21:14:33.244Z,21.11
2022-09-17T21:17:24.179Z,21.10
2022-09-17T21:20:14.848Z,21.10
2022-09-17T21:23:05.003Z,21.10
2022-09-17T21:26:03.477Z,21.10
2022-09-17T21:28:55.025Z,21.11
2022-09-17T21:31:45.243Z,21.11
2022-09-17T21:34:35.550Z,21.11
2022-09-17T21:37:26.145Z,21.11
2022-09-17T21:40:16.320Z,21.11
2022-09-17T21:43:08.218Z,21.11
2022-09-17T21:46:03.864Z,21.10
2022-09-17T21:48:56.493Z,21.09
2022-09-17T21:51:49.449Z,21.10
2022-09-17T21:54:39.632Z,21.09
2022-09-17T21:57:30.348Z,21.09
2022-09-17T22:00:23.315Z,21.09
2022-09-17T22:03:13.723Z,21.08
2022-09-17T22:06:05.425Z,21.08
2022-09-17T22:08:55.939Z,21.07
2022-09-17T22:11:45.923Z,21.07
2022-09-17T22:14:36.172Z,21.07
2022-09-17T22:17:26.410Z,21.06
2022-09-17T22:20:18.831Z,21.06
2022-09-17T22:23:08.774Z,21.05
2022-09-17T22:26:06.481Z,21.06
2022-09-17T22:28:56.477Z,21.05
2022-09-17T22:31:46.744Z,21.04
2022-09-17T22:34:36.778Z,21.04
2022-09-17T22:37:28.297Z,21.04
2022-09-17T22:40:18.368Z,21.03
2022-09-17T22:43:08.363Z,21.03
2022-09-17T22:45:58.694Z,21.03
2022-09-17T22:48:51.783Z,21.03
2022-09-17T22:51:41.999Z,21.02
2022-09-17T22:54:32.493Z,21.03
2022-09-17T22:57:22.473Z,21.02
2022-09-17T23:00:16.996Z,21.02
2022-09-17T23:03:07.043Z,21.02
2022-09-17T23:06:00.838Z,21.01
2022-09-17T23:08:51.199Z,21.01
2022-09-17T23:11:41.579Z,21.01
2022-09-17T23:14:31.751Z,21.00
2022-09-17T23:17:25.968Z,21.00
2022-09-17T23:20:18.965Z,21.00
2022-09-17T23:23:10.678Z,21.00
2022-09-17T23:26:04.561Z,21.00
2022-09-17T23:28:54.897Z,20.99
2022-09-17T23:31:44.975Z,20.99
2022-09-17T23:34:37.067Z,20.99
2022-09-17T23:37:27.034Z,20.99
2022-09-17T23:40:17.628Z,20.99
2022-09-17T23:43:08.234Z,20.98
2022-09-17T23:45:58.997Z,20.98
2022-09-17T23:48:50.663Z,20.98
2022-09-17T23:51:40.587Z,20.98
2022-09-17T23:54:31.102Z,20.98
2022-09-17T23:57:22.408Z,20.98
